sensor_id;sensor_type;location;lat;lon;timestamp;pressure;altitude;pressure_sealevel;temperature;humidity
26531;BME280;14201;43.188;24.160;2024-02-26T00:01:49;99135.31;;;10.36;76.26
26531;BME280;14201;43.188;24.160;2024-02-26T00:04:15;99132.88;;;10.17;76.42
26531;BME280;14201;43.188;24.160;2024-02-26T00:06:40;99128.22;;;10.08;76.92
26531;BME280;14201;43.188;24.160;2024-02-26T00:09:07;99124.78;;;9.85;77.89
26531;BME280;14201;43.188;24.160;2024-02-26T00:11:33;99119.06;;;9.71;78.70
26531;BME280;14201;43.188;24.160;2024-02-26T00:13:59;99126.81;;;9.70;78.69
26531;BME280;14201;43.188;24.160;2024-02-26T00:16:25;99121.41;;;9.63;78.14
26531;BME280;14201;43.188;24.160;2024-02-26T00:18:50;99121.66;;;9.71;77.84
26531;BME280;14201;43.188;24.160;2024-02-26T00:21:16;99119.78;;;9.67;77.42
26531;BME280;14201;43.188;24.160;2024-02-26T00:23:41;99124.97;;;9.67;77.76
26531;BME280;14201;43.188;24.160;2024-02-26T00:26:07;99125.09;;;9.70;78.21
26531;BME280;14201;43.188;24.160;2024-02-26T00:28:33;99123.72;;;9.56;79.26
26531;BME280;14201;43.188;24.160;2024-02-26T00:30:59;99117.69;;;9.57;79.66
26531;BME280;14201;43.188;24.160;2024-02-26T00:33:24;99110.81;;;9.59;79.27
26531;BME280;14201;43.188;24.160;2024-02-26T00:35:50;99102.41;;;9.66;78.99
26531;BME280;14201;43.188;24.160;2024-02-26T00:38:15;99105.13;;;9.69;78.81
26531;BME280;14201;43.188;24.160;2024-02-26T00:40:41;99101.84;;;9.75;78.67
26531;BME280;14201;43.188;24.160;2024-02-26T00:43:07;99097.56;;;9.75;78.78
26531;BME280;14201;43.188;24.160;2024-02-26T00:45:32;99103.81;;;9.80;78.23
26531;BME280;14201;43.188;24.160;2024-02-26T00:47:58;99106.25;;;9.76;78.53
26531;BME280;14201;43.188;24.160;2024-02-26T00:50:26;99094.91;;;9.74;78.80
26531;BME280;14201;43.188;24.160;2024-02-26T00:52:52;99102.00;;;9.78;78.54
26531;BME280;14201;43.188;24.160;2024-02-26T00:55:18;99098.38;;;9.74;78.65
26531;BME280;14201;43.188;24.160;2024-02-26T00:57:43;99100.75;;;9.68;79.46
26531;BME280;14201;43.188;24.160;2024-02-26T01:00:09;99102.34;;;9.18;81.91
26531;BME280;14201;43.188;24.160;2024-02-26T01:02:36;99092.63;;;9.36;81.28
26531;BME280;14201;43.188;24.160;2024-02-26T01:05:02;99095.88;;;9.53;80.43
26531;BME280;14201;43.188;24.160;2024-02-26T01:07:28;99092.81;;;9.63;80.35
26531;BME280;14201;43.188;24.160;2024-02-26T01:09:53;99093.06;;;9.71;80.18
26531;BME280;14201;43.188;24.160;2024-02-26T01:12:19;99100.41;;;9.59;79.72
26531;BME280;14201;43.188;24.160;2024-02-26T01:14:45;99108.44;;;9.65;79.78
26531;BME280;14201;43.188;24.160;2024-02-26T01:17:10;99088.34;;;9.61;79.30
26531;BME280;14201;43.188;24.160;2024-02-26T01:19:36;99092.84;;;9.65;79.55
26531;BME280;14201;43.188;24.160;2024-02-26T01:22:01;99091.09;;;9.64;80.15
26531;BME280;14201;43.188;24.160;2024-02-26T01:24:27;99092.31;;;9.51;80.61
26531;BME280;14201;43.188;24.160;2024-02-26T01:26:53;99095.00;;;9.53;80.73
26531;BME280;14201;43.188;24.160;2024-02-26T01:29:19;99100.53;;;9.62;80.58
26531;BME280;14201;43.188;24.160;2024-02-26T01:31:44;99096.88;;;9.57;80.95
26531;BME280;14201;43.188;24.160;2024-02-26T01:34:11;99091.59;;;9.55;80.83
26531;BME280;14201;43.188;24.160;2024-02-26T01:36:37;99087.34;;;9.57;80.86
26531;BME280;14201;43.188;24.160;2024-02-26T01:39:02;99085.81;;;9.62;81.42
26531;BME280;14201;43.188;24.160;2024-02-26T01:41:28;99083.72;;;9.76;81.03
26531;BME280;14201;43.188;24.160;2024-02-26T01:43:54;99072.53;;;9.79;80.76
26531;BME280;14201;43.188;24.160;2024-02-26T01:46:20;99072.66;;;9.82;80.49
26531;BME280;14201;43.188;24.160;2024-02-26T01:48:47;99078.91;;;9.87;80.07
26531;BME280;14201;43.188;24.160;2024-02-26T01:51:15;99077.91;;;9.83;79.92
26531;BME280;14201;43.188;24.160;2024-02-26T01:53:41;99081.84;;;9.72;79.83
26531;BME280;14201;43.188;24.160;2024-02-26T01:56:07;99070.56;;;9.72;78.67
26531;BME280;14201;43.188;24.160;2024-02-26T01:58:34;99067.41;;;9.80;78.33
26531;BME280;14201;43.188;24.160;2024-02-26T02:01:01;99064.69;;;9.77;78.63
26531;BME280;14201;43.188;24.160;2024-02-26T02:03:28;99068.50;;;9.39;79.25
26531;BME280;14201;43.188;24.160;2024-02-26T02:05:55;99076.63;;;9.48;79.12
26531;BME280;14201;43.188;24.160;2024-02-26T02:08:21;99075.28;;;9.59;78.58
26531;BME280;14201;43.188;24.160;2024-02-26T02:10:48;99074.41;;;9.59;79.41
26531;BME280;14201;43.188;24.160;2024-02-26T02:13:14;99075.91;;;9.52;79.73
26531;BME280;14201;43.188;24.160;2024-02-26T02:15:40;99075.69;;;9.46;80.25
26531;BME280;14201;43.188;24.160;2024-02-26T02:18:06;99088.25;;;9.58;80.41
26531;BME280;14201;43.188;24.160;2024-02-26T02:20:33;99084.81;;;9.59;80.51
26531;BME280;14201;43.188;24.160;2024-02-26T02:23:02;99085.75;;;9.61;80.17
26531;BME280;14201;43.188;24.160;2024-02-26T02:25:28;99085.47;;;9.53;80.64
26531;BME280;14201;43.188;24.160;2024-02-26T02:27:55;99075.72;;;9.48;80.89
26531;BME280;14201;43.188;24.160;2024-02-26T02:30:21;99089.84;;;9.54;80.83
26531;BME280;14201;43.188;24.160;2024-02-26T02:32:49;99083.25;;;8.95;81.57
26531;BME280;14201;43.188;24.160;2024-02-26T02:35:15;99083.06;;;8.90;81.78
26531;BME280;14201;43.188;24.160;2024-02-26T02:37:40;99084.44;;;8.82;82.64
26531;BME280;14201;43.188;24.160;2024-02-26T02:40:06;99093.69;;;8.96;83.11
26531;BME280;14201;43.188;24.160;2024-02-26T02:42:32;99100.63;;;8.96;81.59
26531;BME280;14201;43.188;24.160;2024-02-26T02:44:57;99085.78;;;8.93;82.03
26531;BME280;14201;43.188;24.160;2024-02-26T02:47:23;99096.53;;;9.02;82.68
26531;BME280;14201;43.188;24.160;2024-02-26T02:49:49;99096.69;;;9.07;82.72
26531;BME280;14201;43.188;24.160;2024-02-26T02:52:14;99091.47;;;9.05;82.71
26531;BME280;14201;43.188;24.160;2024-02-26T02:54:40;99101.25;;;9.13;82.65
26531;BME280;14201;43.188;24.160;2024-02-26T02:57:07;99102.47;;;9.21;81.33
26531;BME280;14201;43.188;24.160;2024-02-26T02:59:33;99094.59;;;9.19;81.63
26531;BME280;14201;43.188;24.160;2024-02-26T03:01:59;99108.59;;;9.23;81.83
26531;BME280;14201;43.188;24.160;2024-02-26T03:04:24;99107.25;;;9.33;81.58
26531;BME280;14201;43.188;24.160;2024-02-26T03:06:50;99109.88;;;9.34;81.24
26531;BME280;14201;43.188;24.160;2024-02-26T03:09:16;99108.25;;;9.14;81.19
26531;BME280;14201;43.188;24.160;2024-02-26T03:11:41;99109.81;;;9.10;81.69
26531;BME280;14201;43.188;24.160;2024-02-26T03:14:07;99107.53;;;9.18;81.06
26531;BME280;14201;43.188;24.160;2024-02-26T03:16:33;99106.66;;;9.17;81.00
26531;BME280;14201;43.188;24.160;2024-02-26T03:18:59;99104.34;;;9.25;80.79
26531;BME280;14201;43.188;24.160;2024-02-26T03:21:25;99109.66;;;9.28;81.35
26531;BME280;14201;43.188;24.160;2024-02-26T03:23:50;99099.81;;;9.19;81.56
26531;BME280;14201;43.188;24.160;2024-02-26T03:26:16;99093.81;;;9.22;81.97
26531;BME280;14201;43.188;24.160;2024-02-26T03:28:42;99098.00;;;8.96;80.93
26531;BME280;14201;43.188;24.160;2024-02-26T03:31:07;99103.72;;;8.87;79.93
26531;BME280;14201;43.188;24.160;2024-02-26T03:33:34;99095.91;;;8.87;80.03
26531;BME280;14201;43.188;24.160;2024-02-26T03:35:59;99099.09;;;8.80;79.71
26531;BME280;14201;43.188;24.160;2024-02-26T03:38:25;99093.91;;;8.80;80.26
26531;BME280;14201;43.188;24.160;2024-02-26T03:40:50;99100.25;;;8.86;80.21
26531;BME280;14201;43.188;24.160;2024-02-26T03:43:16;99105.19;;;8.80;81.56
26531;BME280;14201;43.188;24.160;2024-02-26T03:45:42;99108.41;;;8.75;81.57
26531;BME280;14201;43.188;24.160;2024-02-26T03:48:08;99099.47;;;8.68;82.37
26531;BME280;14201;43.188;24.160;2024-02-26T03:50:33;99095.53;;;8.78;82.59
26531;BME280;14201;43.188;24.160;2024-02-26T03:53:00;99100.09;;;8.83;83.15
26531;BME280;14201;43.188;24.160;2024-02-26T03:55:25;99090.59;;;8.84;83.63
26531;BME280;14201;43.188;24.160;2024-02-26T03:57:51;99079.41;;;8.85;83.54
26531;BME280;14201;43.188;24.160;2024-02-26T04:00:17;99075.69;;;8.78;84.13
26531;BME280;14201;43.188;24.160;2024-02-26T04:02:43;99069.88;;;8.63;81.84
26531;BME280;14201;43.188;24.160;2024-02-26T04:05:10;99076.31;;;8.52;82.27
26531;BME280;14201;43.188;24.160;2024-02-26T04:07:36;99080.75;;;8.54;82.22
26531;BME280;14201;43.188;24.160;2024-02-26T04:10:01;99087.03;;;8.59;82.51
26531;BME280;14201;43.188;24.160;2024-02-26T04:12:30;99099.31;;;8.63;81.89
26531;BME280;14201;43.188;24.160;2024-02-26T04:14:56;99090.00;;;8.47;82.16
26531;BME280;14201;43.188;24.160;2024-02-26T04:17:21;99083.78;;;8.44;82.21
26531;BME280;14201;43.188;24.160;2024-02-26T04:19:47;99089.78;;;8.43;82.94
26531;BME280;14201;43.188;24.160;2024-02-26T04:22:12;99074.44;;;8.47;83.46
26531;BME280;14201;43.188;24.160;2024-02-26T04:24:38;99078.03;;;8.51;83.71
26531;BME280;14201;43.188;24.160;2024-02-26T04:27:04;99084.81;;;8.47;84.04
26531;BME280;14201;43.188;24.160;2024-02-26T04:29:29;99080.75;;;8.54;84.28
26531;BME280;14201;43.188;24.160;2024-02-26T04:31:55;99081.84;;;8.59;84.14
26531;BME280;14201;43.188;24.160;2024-02-26T04:34:20;99084.44;;;8.59;84.46
26531;BME280;14201;43.188;24.160;2024-02-26T04:36:46;99098.84;;;8.74;82.84
26531;BME280;14201;43.188;24.160;2024-02-26T04:39:13;99101.34;;;8.71;83.13
26531;BME280;14201;43.188;24.160;2024-02-26T04:41:39;99096.56;;;8.60;83.15
26531;BME280;14201;43.188;24.160;2024-02-26T04:44:05;99092.63;;;8.70;81.74
26531;BME280;14201;43.188;24.160;2024-02-26T04:46:30;99094.91;;;8.62;82.69
26531;BME280;14201;43.188;24.160;2024-02-26T04:48:56;99080.69;;;8.53;83.66
26531;BME280;14201;43.188;24.160;2024-02-26T04:51:21;99082.56;;;8.57;84.71
26531;BME280;14201;43.188;24.160;2024-02-26T04:53:47;99079.25;;;8.59;83.85
26531;BME280;14201;43.188;24.160;2024-02-26T04:56:14;99086.06;;;8.57;84.07
26531;BME280;14201;43.188;24.160;2024-02-26T04:58:39;99074.63;;;8.33;82.12
26531;BME280;14201;43.188;24.160;2024-02-26T05:01:05;99092.38;;;8.43;82.46
26531;BME280;14201;43.188;24.160;2024-02-26T05:03:30;99095.47;;;8.34;83.50
26531;BME280;14201;43.188;24.160;2024-02-26T05:05:57;99095.56;;;8.37;84.20
26531;BME280;14201;43.188;24.160;2024-02-26T05:08:23;99104.38;;;8.41;83.92
26531;BME280;14201;43.188;24.160;2024-02-26T05:10:49;99097.28;;;8.37;83.64
26531;BME280;14201;43.188;24.160;2024-02-26T05:13:15;99108.09;;;8.46;84.54
26531;BME280;14201;43.188;24.160;2024-02-26T05:15:43;99114.31;;;8.50;84.32
26531;BME280;14201;43.188;24.160;2024-02-26T05:18:10;99109.19;;;8.51;83.97
26531;BME280;14201;43.188;24.160;2024-02-26T05:20:35;99109.66;;;8.42;84.61
26531;BME280;14201;43.188;24.160;2024-02-26T05:23:03;99113.41;;;8.49;84.88
26531;BME280;14201;43.188;24.160;2024-02-26T05:25:29;99125.50;;;8.48;83.72
26531;BME280;14201;43.188;24.160;2024-02-26T05:27:55;99129.81;;;8.48;83.49
26531;BME280;14201;43.188;24.160;2024-02-26T05:30:21;99133.91;;;8.43;84.31
26531;BME280;14201;43.188;24.160;2024-02-26T05:32:46;99133.88;;;8.41;84.72
26531;BME280;14201;43.188;24.160;2024-02-26T05:35:12;99129.66;;;8.45;85.71
26531;BME280;14201;43.188;24.160;2024-02-26T05:37:38;99124.09;;;8.57;86.16
26531;BME280;14201;43.188;24.160;2024-02-26T05:40:05;99130.19;;;8.57;87.20
26531;BME280;14201;43.188;24.160;2024-02-26T05:42:31;99138.34;;;8.66;87.66
26531;BME280;14201;43.188;24.160;2024-02-26T05:44:57;99135.66;;;8.63;88.22
26531;BME280;14201;43.188;24.160;2024-02-26T05:47:23;99131.56;;;8.70;87.62
26531;BME280;14201;43.188;24.160;2024-02-26T05:49:48;99136.84;;;8.72;87.91
26531;BME280;14201;43.188;24.160;2024-02-26T05:52:14;99154.53;;;8.80;87.89
26531;BME280;14201;43.188;24.160;2024-02-26T05:54:40;99153.94;;;8.87;87.31
26531;BME280;14201;43.188;24.160;2024-02-26T05:57:08;99155.66;;;8.87;86.89
26531;BME280;14201;43.188;24.160;2024-02-26T05:59:34;99162.56;;;8.86;85.62
26531;BME280;14201;43.188;24.160;2024-02-26T06:01:59;99162.88;;;8.94;84.97
26531;BME280;14201;43.188;24.160;2024-02-26T06:04:25;99155.56;;;8.85;86.06
26531;BME280;14201;43.188;24.160;2024-02-26T06:06:51;99156.66;;;8.91;86.77
26531;BME280;14201;43.188;24.160;2024-02-26T06:09:16;99158.38;;;8.90;87.14
26531;BME280;14201;43.188;24.160;2024-02-26T06:11:42;99168.13;;;8.96;87.09
26531;BME280;14201;43.188;24.160;2024-02-26T06:14:07;99165.78;;;9.02;87.31
26531;BME280;14201;43.188;24.160;2024-02-26T06:16:33;99163.13;;;9.00;87.32
26531;BME280;14201;43.188;24.160;2024-02-26T06:19:00;99167.84;;;9.11;86.79
26531;BME280;14201;43.188;24.160;2024-02-26T06:21:25;99171.41;;;9.13;87.04
26531;BME280;14201;43.188;24.160;2024-02-26T06:23:51;99170.44;;;9.11;86.72
26531;BME280;14201;43.188;24.160;2024-02-26T06:26:17;99188.88;;;9.17;86.04
26531;BME280;14201;43.188;24.160;2024-02-26T06:28:42;99172.66;;;9.01;87.52
26531;BME280;14201;43.188;24.160;2024-02-26T06:31:08;99183.00;;;9.21;87.82
26531;BME280;14201;43.188;24.160;2024-02-26T06:33:33;99175.22;;;9.21;88.25
26531;BME280;14201;43.188;24.160;2024-02-26T06:35:59;99188.50;;;9.29;88.63
26531;BME280;14201;43.188;24.160;2024-02-26T06:38:25;99191.28;;;9.33;89.11
26531;BME280;14201;43.188;24.160;2024-02-26T06:40:50;99197.28;;;9.32;88.92
26531;BME280;14201;43.188;24.160;2024-02-26T06:43:16;99194.91;;;9.37;88.44
26531;BME280;14201;43.188;24.160;2024-02-26T06:45:42;99189.44;;;9.53;86.66
26531;BME280;14201;43.188;24.160;2024-02-26T06:48:07;99185.03;;;9.51;86.86
26531;BME280;14201;43.188;24.160;2024-02-26T06:50:33;99180.63;;;9.48;87.45
26531;BME280;14201;43.188;24.160;2024-02-26T06:52:58;99180.66;;;9.50;88.52
26531;BME280;14201;43.188;24.160;2024-02-26T06:55:24;99175.81;;;9.59;88.17
26531;BME280;14201;43.188;24.160;2024-02-26T06:57:49;99182.97;;;9.64;87.89
26531;BME280;14201;43.188;24.160;2024-02-26T07:00:15;99183.47;;;9.78;87.15
26531;BME280;14201;43.188;24.160;2024-02-26T07:02:42;99174.81;;;9.78;86.02
26531;BME280;14201;43.188;24.160;2024-02-26T07:05:08;99185.84;;;9.72;87.17
26531;BME280;14201;43.188;24.160;2024-02-26T07:07:34;99184.19;;;9.74;87.75
26531;BME280;14201;43.188;24.160;2024-02-26T07:10:00;99179.94;;;9.76;88.43
26531;BME280;14201;43.188;24.160;2024-02-26T07:12:29;99173.38;;;9.86;89.36
26531;BME280;14201;43.188;24.160;2024-02-26T07:14:55;99185.94;;;9.98;90.17
26531;BME280;14201;43.188;24.160;2024-02-26T07:17:20;99202.25;;;10.16;91.32
26531;BME280;14201;43.188;24.160;2024-02-26T07:19:46;99191.47;;;10.30;89.93
26531;BME280;14201;43.188;24.160;2024-02-26T07:22:12;99185.78;;;10.40;89.47
26531;BME280;14201;43.188;24.160;2024-02-26T07:24:37;99194.22;;;10.58;91.08
26531;BME280;14201;43.188;24.160;2024-02-26T07:27:03;99201.63;;;10.72;90.69
26531;BME280;14201;43.188;24.160;2024-02-26T07:29:29;99205.38;;;11.06;86.44
26531;BME280;14201;43.188;24.160;2024-02-26T07:31:54;99199.22;;;11.03;86.54
26531;BME280;14201;43.188;24.160;2024-02-26T07:34:20;99213.97;;;11.29;85.85
26531;BME280;14201;43.188;24.160;2024-02-26T07:36:45;99212.34;;;11.32;85.76
26531;BME280;14201;43.188;24.160;2024-02-26T07:39:11;99213.09;;;11.57;83.46
26531;BME280;14201;43.188;24.160;2024-02-26T07:41:36;99219.66;;;11.71;82.42
26531;BME280;14201;43.188;24.160;2024-02-26T07:44:04;99224.94;;;11.74;81.94
26531;BME280;14201;43.188;24.160;2024-02-26T07:46:29;99222.56;;;11.82;80.33
26531;BME280;14201;43.188;24.160;2024-02-26T07:48:55;99219.19;;;11.86;80.50
26531;BME280;14201;43.188;24.160;2024-02-26T07:51:21;99211.84;;;12.00;81.48
26531;BME280;14201;43.188;24.160;2024-02-26T07:53:47;99206.81;;;12.06;81.60
26531;BME280;14201;43.188;24.160;2024-02-26T07:56:13;99202.56;;;12.11;81.55
26531;BME280;14201;43.188;24.160;2024-02-26T07:58:39;99201.94;;;12.18;82.15
26531;BME280;14201;43.188;24.160;2024-02-26T08:01:04;99203.06;;;12.28;81.92
26531;BME280;14201;43.188;24.160;2024-02-26T08:03:29;99201.75;;;12.44;81.16
26531;BME280;14201;43.188;24.160;2024-02-26T08:05:55;99205.28;;;12.46;80.19
26531;BME280;14201;43.188;24.160;2024-02-26T08:08:21;99202.44;;;12.69;79.93
26531;BME280;14201;43.188;24.160;2024-02-26T08:10:47;99199.25;;;12.80;80.01
26531;BME280;14201;43.188;24.160;2024-02-26T08:13:12;99208.66;;;13.07;79.58
26531;BME280;14201;43.188;24.160;2024-02-26T08:15:38;99204.09;;;13.33;77.68
26531;BME280;14201;43.188;24.160;2024-02-26T08:18:04;99201.78;;;13.47;77.98
26531;BME280;14201;43.188;24.160;2024-02-26T08:20:30;99199.44;;;13.58;76.10
26531;BME280;14201;43.188;24.160;2024-02-26T08:22:56;99209.50;;;13.79;74.74
26531;BME280;14201;43.188;24.160;2024-02-26T08:25:22;99211.44;;;13.88;72.60
26531;BME280;14201;43.188;24.160;2024-02-26T08:27:47;99203.03;;;14.03;72.55
26531;BME280;14201;43.188;24.160;2024-02-26T08:30:13;99216.50;;;14.20;71.34
26531;BME280;14201;43.188;24.160;2024-02-26T08:32:41;99214.72;;;14.18;71.02
26531;BME280;14201;43.188;24.160;2024-02-26T08:35:07;99218.53;;;14.33;70.33
26531;BME280;14201;43.188;24.160;2024-02-26T08:37:33;99228.25;;;14.38;70.93
26531;BME280;14201;43.188;24.160;2024-02-26T08:39:58;99226.63;;;14.45;70.74
26531;BME280;14201;43.188;24.160;2024-02-26T08:42:24;99224.41;;;14.23;70.00
26531;BME280;14201;43.188;24.160;2024-02-26T08:44:49;99223.34;;;14.14;70.74
26531;BME280;14201;43.188;24.160;2024-02-26T08:47:14;99227.97;;;14.26;70.67
26531;BME280;14201;43.188;24.160;2024-02-26T08:49:44;99226.50;;;14.39;72.02
26531;BME280;14201;43.188;24.160;2024-02-26T08:52:10;99219.94;;;14.60;71.34
26531;BME280;14201;43.188;24.160;2024-02-26T08:54:35;99218.34;;;14.69;70.93
26531;BME280;14201;43.188;24.160;2024-02-26T08:57:00;99226.63;;;14.89;68.74
26531;BME280;14201;43.188;24.160;2024-02-26T08:59:26;99222.59;;;15.08;66.65
26531;BME280;14201;43.188;24.160;2024-02-26T09:01:51;99219.97;;;15.10;67.06
26531;BME280;14201;43.188;24.160;2024-02-26T09:04:16;99218.31;;;15.15;68.08
26531;BME280;14201;43.188;24.160;2024-02-26T09:06:42;99215.28;;;15.44;68.72
26531;BME280;14201;43.188;24.160;2024-02-26T09:09:07;99217.53;;;15.75;68.30
26531;BME280;14201;43.188;24.160;2024-02-26T09:11:33;99213.69;;;16.13;66.72
26531;BME280;14201;43.188;24.160;2024-02-26T09:13:58;99207.03;;;16.43;62.20
26531;BME280;14201;43.188;24.160;2024-02-26T09:16:24;99209.72;;;16.47;63.95
26531;BME280;14201;43.188;24.160;2024-02-26T09:18:49;99211.69;;;16.65;61.60
26531;BME280;14201;43.188;24.160;2024-02-26T09:21:15;99210.91;;;16.79;62.60
26531;BME280;14201;43.188;24.160;2024-02-26T09:23:41;99198.78;;;16.90;59.84
26531;BME280;14201;43.188;24.160;2024-02-26T09:26:06;99211.16;;;17.02;59.70
26531;BME280;14201;43.188;24.160;2024-02-26T09:28:32;99205.72;;;16.82;60.42
26531;BME280;14201;43.188;24.160;2024-02-26T09:31:03;99205.88;;;16.97;59.66
26531;BME280;14201;43.188;24.160;2024-02-26T09:33:29;99204.88;;;16.84;60.00
26531;BME280;14201;43.188;24.160;2024-02-26T09:35:54;99194.25;;;16.77;61.38
26531;BME280;14201;43.188;24.160;2024-02-26T09:38:19;99188.28;;;16.91;62.72
26531;BME280;14201;43.188;24.160;2024-02-26T09:40:45;99193.78;;;17.16;63.42
26531;BME280;14201;43.188;24.160;2024-02-26T09:43:11;99191.41;;;17.51;62.34
26531;BME280;14201;43.188;24.160;2024-02-26T09:45:39;99187.19;;;17.81;59.06
26531;BME280;14201;43.188;24.160;2024-02-26T09:48:05;99177.50;;;17.77;59.78
26531;BME280;14201;43.188;24.160;2024-02-26T09:50:33;99172.38;;;17.94;58.86
26531;BME280;14201;43.188;24.160;2024-02-26T09:52:59;99178.63;;;18.13;59.17
26531;BME280;14201;43.188;24.160;2024-02-26T09:55:27;99178.72;;;18.47;57.40
26531;BME280;14201;43.188;24.160;2024-02-26T09:57:53;99177.88;;;18.62;54.97
26531;BME280;14201;43.188;24.160;2024-02-26T10:00:19;99171.63;;;18.24;57.38
26531;BME280;14201;43.188;24.160;2024-02-26T10:02:46;99172.56;;;18.46;55.96
26531;BME280;14201;43.188;24.160;2024-02-26T10:05:13;99161.19;;;18.67;58.06
26531;BME280;14201;43.188;24.160;2024-02-26T10:07:39;99161.25;;;19.00;57.37
26531;BME280;14201;43.188;24.160;2024-02-26T10:10:05;99163.00;;;19.28;55.77
26531;BME280;14201;43.188;24.160;2024-02-26T10:12:31;99164.72;;;19.65;55.63
26531;BME280;14201;43.188;24.160;2024-02-26T10:14:57;99155.03;;;19.85;54.00
26531;BME280;14201;43.188;24.160;2024-02-26T10:17:23;99156.69;;;20.00;53.38
26531;BME280;14201;43.188;24.160;2024-02-26T10:19:48;99158.31;;;20.35;53.22
26531;BME280;14201;43.188;24.160;2024-02-26T10:22:16;99160.81;;;20.66;50.74
26531;BME280;14201;43.188;24.160;2024-02-26T10:24:41;99157.09;;;20.93;49.85
26531;BME280;14201;43.188;24.160;2024-02-26T10:27:07;99151.72;;;21.06;49.57
26531;BME280;14201;43.188;24.160;2024-02-26T10:29:34;99147.34;;;21.00;49.28
26531;BME280;14201;43.188;24.160;2024-02-26T10:31:59;99147.38;;;20.97;46.98
26531;BME280;14201;43.188;24.160;2024-02-26T10:34:25;99142.94;;;20.97;48.57
26531;BME280;14201;43.188;24.160;2024-02-26T10:36:51;99145.63;;;20.96;48.82
26531;BME280;14201;43.188;24.160;2024-02-26T10:39:17;99137.50;;;21.13;48.07
26531;BME280;14201;43.188;24.160;2024-02-26T10:41:43;99134.66;;;21.36;46.97
26531;BME280;14201;43.188;24.160;2024-02-26T10:44:09;99135.41;;;21.53;45.66
26531;BME280;14201;43.188;24.160;2024-02-26T10:46:36;99131.00;;;21.52;44.93
26531;BME280;14201;43.188;24.160;2024-02-26T10:49:02;99125.72;;;21.52;45.97
26531;BME280;14201;43.188;24.160;2024-02-26T10:51:28;99129.22;;;21.54;46.93
26531;BME280;14201;43.188;24.160;2024-02-26T10:53:57;99120.16;;;21.74;46.01
26531;BME280;14201;43.188;24.160;2024-02-26T10:56:24;99123.69;;;21.73;46.49
26531;BME280;14201;43.188;24.160;2024-02-26T10:58:52;99111.44;;;21.64;45.36
26531;BME280;14201;43.188;24.160;2024-02-26T11:01:18;99117.94;;;21.31;45.71
26531;BME280;14201;43.188;24.160;2024-02-26T11:03:44;99111.88;;;21.16;46.83
26531;BME280;14201;43.188;24.160;2024-02-26T11:06:10;99111.94;;;21.10;47.21
26531;BME280;14201;43.188;24.160;2024-02-26T11:08:36;99114.72;;;20.95;47.13
26531;BME280;14201;43.188;24.160;2024-02-26T11:11:01;99112.38;;;20.52;47.77
26531;BME280;14201;43.188;24.160;2024-02-26T11:13:28;99118.59;;;20.48;48.46
26531;BME280;14201;43.188;24.160;2024-02-26T11:15:55;99117.66;;;20.53;48.97
26531;BME280;14201;43.188;24.160;2024-02-26T11:18:23;99110.56;;;20.58;48.75
26531;BME280;14201;43.188;24.160;2024-02-26T11:20:49;99114.16;;;20.46;47.05
26531;BME280;14201;43.188;24.160;2024-02-26T11:23:15;99108.88;;;20.46;47.76
26531;BME280;14201;43.188;24.160;2024-02-26T11:25:41;99108.03;;;20.38;48.79
26531;BME280;14201;43.188;24.160;2024-02-26T11:28:08;99103.72;;;20.22;49.85
26531;BME280;14201;43.188;24.160;2024-02-26T11:30:35;99103.75;;;20.17;49.25
26531;BME280;14201;43.188;24.160;2024-02-26T11:33:03;99102.88;;;20.14;49.72
26531;BME280;14201;43.188;24.160;2024-02-26T11:35:29;99105.59;;;19.98;49.77
26531;BME280;14201;43.188;24.160;2024-02-26T11:37:55;99110.94;;;19.83;52.01
26531;BME280;14201;43.188;24.160;2024-02-26T11:40:24;99107.44;;;19.84;52.18
26531;BME280;14201;43.188;24.160;2024-02-26T11:42:50;99100.44;;;19.57;53.59
26531;BME280;14201;43.188;24.160;2024-02-26T11:48:02;99097.91;;;19.12;56.89
26531;BME280;14201;43.188;24.160;2024-02-26T11:50:40;99091.72;;;19.16;57.95
26531;BME280;14201;43.188;24.160;2024-02-26T11:53:28;99091.72;;;19.05;57.99
26531;BME280;14201;43.188;24.160;2024-02-26T11:58:38;99088.25;;;19.00;58.60
26531;BME280;14201;43.188;24.160;2024-02-26T12:01:03;99093.50;;;18.89;58.87
26531;BME280;14201;43.188;24.160;2024-02-26T12:03:29;99094.38;;;18.90;58.82
26531;BME280;14201;43.188;24.160;2024-02-26T12:05:55;99101.38;;;18.46;59.75
26531;BME280;14201;43.188;24.160;2024-02-26T12:08:21;99111.91;;;18.40;59.61
26531;BME280;14201;43.188;24.160;2024-02-26T12:10:48;99111.03;;;18.44;59.47
26531;BME280;14201;43.188;24.160;2024-02-26T12:13:14;99105.78;;;18.58;59.43
26531;BME280;14201;43.188;24.160;2024-02-26T12:15:44;99102.25;;;18.48;59.33
26531;BME280;14201;43.188;24.160;2024-02-26T12:18:10;99098.75;;;18.48;58.62
26531;BME280;14201;43.188;24.160;2024-02-26T12:20:38;99096.09;;;18.65;58.98
26531;BME280;14201;43.188;24.160;2024-02-26T12:23:04;99101.38;;;18.68;59.19
26531;BME280;14201;43.188;24.160;2024-02-26T12:25:30;99091.75;;;18.81;58.31
26531;BME280;14201;43.188;24.160;2024-02-26T12:27:56;99102.31;;;18.92;57.78
26531;BME280;14201;43.188;24.160;2024-02-26T12:30:22;99102.31;;;18.88;57.54
26531;BME280;14201;43.188;24.160;2024-02-26T12:32:48;99096.16;;;19.00;57.57
26531;BME280;14201;43.188;24.160;2024-02-26T12:35:14;99100.56;;;19.06;57.13
26531;BME280;14201;43.188;24.160;2024-02-26T12:37:40;99101.41;;;18.77;58.04
26531;BME280;14201;43.188;24.160;2024-02-26T12:40:06;99103.13;;;18.70;58.01
26531;BME280;14201;43.188;24.160;2024-02-26T12:42:34;99104.03;;;18.77;58.25
26531;BME280;14201;43.188;24.160;2024-02-26T12:45:04;99102.25;;;18.70;58.32
26531;BME280;14201;43.188;24.160;2024-02-26T12:47:37;99100.50;;;18.64;58.93
26531;BME280;14201;43.188;24.160;2024-02-26T12:50:03;99105.78;;;18.75;58.80
26531;BME280;14201;43.188;24.160;2024-02-26T12:52:30;99097.88;;;18.77;58.40
26531;BME280;14201;43.188;24.160;2024-02-26T12:54:56;99104.88;;;18.48;59.85